Terminal Aerodrome Forecast
Issued by NWS Wakefield, VA

Home | Current Version | Previous Version | Text Only | Print | Product List | Glossary On
Versions: 1 2 3 4 5 6 7 8 9 10 11 12 13 14 15 16 17 18 19 20 21
113
FTUS41 KAKQ 212320
TAFSBY
TAF
KSBY 212320Z 2200/2224 VRB03KT P6SM SKC
     FM220900 00000KT 1SM BR SKC
     FM221200 34006KT P6SM FEW250=

USA.gov is the U.S. government's official web portal to all federal, state and local government web resources and services.